createdAt,value
2022-12-20T00:02:44.955Z,4.72
2022-12-20T00:05:30.423Z,4.72
2022-12-20T00:08:16.098Z,4.74
2022-12-20T00:11:02.811Z,4.73
2022-12-20T00:13:47.947Z,4.75
2022-12-20T00:16:33.755Z,4.78
2022-12-20T00:19:19.270Z,4.79
2022-12-20T00:22:04.385Z,4.77
2022-12-20T00:24:49.544Z,4.75
2022-12-20T00:27:34.818Z,4.73
2022-12-20T00:30:20.131Z,4.73
2022-12-20T00:33:05.342Z,4.72
2022-12-20T00:35:51.799Z,4.73
2022-12-20T00:38:38.037Z,4.76
2022-12-20T00:41:29.657Z,4.80
2022-12-20T00:44:15.675Z,4.82
2022-12-20T00:47:01.181Z,4.86
2022-12-20T00:49:46.397Z,4.86
2022-12-20T00:52:31.891Z,4.84
2022-12-20T00:55:17.367Z,4.87
2022-12-20T00:58:02.570Z,4.87
2022-12-20T01:00:54.071Z,4.87
2022-12-20T01:03:42.676Z,4.89
2022-12-20T01:06:29.401Z,4.90
2022-12-20T01:09:14.774Z,4.88
2022-12-20T01:12:00.398Z,4.88
2022-12-20T01:14:45.958Z,4.89
2022-12-20T01:17:31.104Z,4.90
2022-12-20T01:20:16.860Z,4.91
2022-12-20T01:23:02.448Z,4.92
2022-12-20T01:25:51.069Z,4.94
2022-12-20T01:28:38.397Z,4.97
2022-12-20T01:31:24.582Z,5.00
2022-12-20T01:34:10.875Z,5.00
2022-12-20T01:36:56.362Z,5.03
2022-12-20T01:39:41.884Z,5.04
2022-12-20T01:42:27.011Z,5.07
2022-12-20T01:45:25.620Z,5.08
2022-12-20T01:48:12.110Z,5.06
2022-12-20T01:50:57.582Z,5.06
2022-12-20T01:53:43.514Z,5.06
2022-12-20T01:56:28.823Z,5.04
2022-12-20T01:59:14.142Z,5.03
2022-12-20T02:02:05.072Z,5.01
2022-12-20T02:04:50.523Z,5.02
2022-12-20T02:07:51.586Z,5.02
2022-12-20T02:10:52.466Z,5.01
2022-12-20T02:14:27.658Z,4.96
2022-12-20T02:17:17.744Z,4.92
2022-12-20T02:20:18.403Z,4.96
2022-12-20T02:23:28.069Z,4.98
2022-12-20T02:26:28.379Z,5.02
2022-12-20T02:29:33.726Z,5.05
2022-12-20T02:32:26.530Z,5.13
2022-12-20T02:35:14.912Z,5.15
2022-12-20T02:38:23.539Z,5.18
2022-12-20T02:41:30.333Z,5.17
2022-12-20T02:44:38.547Z,5.16
2022-12-20T02:47:33.853Z,5.16
2022-12-20T02:50:36.828Z,5.19
2022-12-20T02:53:23.660Z,5.26
2022-12-20T02:56:19.913Z,5.31
2022-12-20T02:59:12.488Z,5.31
2022-12-20T03:01:58.589Z,5.32
2022-12-20T03:04:47.283Z,5.37
2022-12-20T03:07:34.442Z,5.39
2022-12-20T03:10:20.957Z,5.42
2022-12-20T03:13:06.050Z,5.41
2022-12-20T03:15:53.286Z,5.38
2022-12-20T03:18:39.098Z,5.39
2022-12-20T03:21:24.227Z,5.37
2022-12-20T03:24:11.143Z,5.38
2022-12-20T03:26:56.048Z,5.40
2022-12-20T03:29:42.977Z,5.37
2022-12-20T03:32:28.245Z,5.40
2022-12-20T03:35:14.296Z,5.41
2022-12-20T03:38:00.072Z,5.43
2022-12-20T03:40:45.769Z,5.46
2022-12-20T03:43:35.125Z,5.48
2022-12-20T03:46:20.975Z,5.52
2022-12-20T03:49:06.362Z,5.56
2022-12-20T03:51:55.856Z,5.56
2022-12-20T03:54:41.859Z,5.56
2022-12-20T03:57:39.927Z,5.56
2022-12-20T04:00:37.173Z,5.54
2022-12-20T04:03:51.783Z,5.48
2022-12-20T04:06:37.013Z,5.45
2022-12-20T04:09:22.417Z,5.40
2022-12-20T04:12:12.909Z,5.36
2022-12-20T04:14:58.505Z,5.34
2022-12-20T04:17:43.972Z,5.32
2022-12-20T04:20:29.659Z,5.30
2022-12-20T04:23:29.466Z,5.29
2022-12-20T04:26:15.469Z,5.25
2022-12-20T04:29:00.796Z,5.24
2022-12-20T04:31:46.859Z,5.23
2022-12-20T04:34:32.578Z,5.21
2022-12-20T04:37:18.674Z,5.18
2022-12-20T04:40:09.733Z,5.19
2022-12-20T04:43:04.389Z,5.18
2022-12-20T04:45:52.913Z,5.16
2022-12-20T04:48:58.468Z,5.12
2022-12-20T04:51:44.680Z,5.09
2022-12-20T04:54:32.960Z,5.06
2022-12-20T04:57:30.519Z,5.06
2022-12-20T05:00:17.189Z,5.07
2022-12-20T05:03:07.398Z,5.06
2022-12-20T05:05:53.542Z,5.04
2022-12-20T05:08:40.426Z,5.04
2022-12-20T05:11:26.295Z,5.06
2022-12-20T05:14:11.731Z,5.12
2022-12-20T05:16:57.302Z,5.13
2022-12-20T05:19:44.345Z,5.16
2022-12-20T05:22:52.049Z,5.19
2022-12-20T05:26:09.391Z,5.24
2022-12-20T05:28:55.454Z,5.25
2022-12-20T05:31:41.261Z,5.27
2022-12-20T05:34:27.017Z,5.29
2022-12-20T05:37:14.389Z,5.33
2022-12-20T05:40:01.478Z,5.35
2022-12-20T05:42:47.163Z,5.35
2022-12-20T05:45:33.172Z,5.36
2022-12-20T05:48:22.501Z,5.38
2022-12-20T05:51:07.727Z,5.44
2022-12-20T05:54:05.722Z,5.49
2022-12-20T05:57:01.193Z,5.49
2022-12-20T05:59:53.102Z,5.50
2022-12-20T06:02:42.477Z,5.54
2022-12-20T06:05:28.022Z,5.56
2022-12-20T06:08:14.549Z,5.57
2022-12-20T06:11:00.933Z,5.59
2022-12-20T06:13:48.009Z,5.60
2022-12-20T06:16:34.501Z,5.61
2022-12-20T06:19:21.843Z,5.65
2022-12-20T06:22:10.411Z,5.68
2022-12-20T06:25:00.458Z,5.70
2022-12-20T06:27:49.985Z,5.72
2022-12-20T06:30:35.447Z,5.71
2022-12-20T06:33:25.745Z,5.75
2022-12-20T06:36:11.764Z,5.76
2022-12-20T06:38:57.412Z,5.78
2022-12-20T06:41:42.988Z,5.80
2022-12-20T06:44:28.204Z,5.80
2022-12-20T06:47:13.649Z,5.81
2022-12-20T06:49:59.289Z,5.81
2022-12-20T06:52:45.283Z,5.81
2022-12-20T06:55:30.700Z,5.84
2022-12-20T06:58:17.572Z,5.85
2022-12-20T07:01:05.594Z,5.84
2022-12-20T07:03:51.228Z,5.84
2022-12-20T07:06:36.621Z,5.81
2022-12-20T07:09:21.654Z,5.81
2022-12-20T07:12:08.738Z,5.82
2022-12-20T07:14:53.888Z,5.82
2022-12-20T07:17:39.431Z,5.84
2022-12-20T07:20:24.726Z,5.82
2022-12-20T07:23:09.980Z,5.87
2022-12-20T07:25:56.623Z,5.90
2022-12-20T07:28:42.716Z,5.93
2022-12-20T07:31:28.204Z,5.95
2022-12-20T07:34:13.657Z,5.97
2022-12-20T07:36:58.950Z,5.99
2022-12-20T07:39:44.154Z,6.03
2022-12-20T07:42:36.175Z,6.06
2022-12-20T07:45:24.357Z,6.08
2022-12-20T07:48:13.885Z,6.09
2022-12-20T07:51:12.061Z,6.11
2022-12-20T07:54:12.206Z,6.13
2022-12-20T07:57:01.754Z,6.16
2022-12-20T07:59:51.205Z,6.18
2022-12-20T08:02:48.669Z,6.20
2022-12-20T08:05:37.346Z,6.21
2022-12-20T08:08:23.375Z,6.20
2022-12-20T08:11:10.735Z,6.20
2022-12-20T08:13:58.331Z,6.23
2022-12-20T08:16:44.293Z,6.25
2022-12-20T08:19:32.486Z,6.25
2022-12-20T08:22:19.244Z,6.26
2022-12-20T08:25:04.813Z,6.28
2022-12-20T08:27:50.305Z,6.29
2022-12-20T08:30:35.595Z,6.29
2022-12-20T08:33:20.995Z,6.30
2022-12-20T08:36:10.881Z,6.31
2022-12-20T08:38:56.449Z,6.32
2022-12-20T08:41:41.755Z,6.31
2022-12-20T08:44:26.780Z,6.35
2022-12-20T08:47:12.127Z,6.38
2022-12-20T08:49:57.602Z,6.41
2022-12-20T08:52:42.648Z,6.45
2022-12-20T08:55:29.398Z,6.47
2022-12-20T08:58:15.698Z,6.51
2022-12-20T09:01:06.413Z,6.54
2022-12-20T09:03:52.196Z,6.63
2022-12-20T09:06:37.378Z,6.64
2022-12-20T09:09:22.374Z,6.66
2022-12-20T09:12:08.001Z,6.70
2022-12-20T09:14:53.356Z,6.72
2022-12-20T09:17:38.740Z,6.76
2022-12-20T09:20:23.827Z,6.81
2022-12-20T09:23:09.264Z,6.85
2022-12-20T09:25:55.724Z,6.93
2022-12-20T09:28:42.491Z,6.98
2022-12-20T09:31:28.204Z,7.06
2022-12-20T09:34:13.398Z,7.13
2022-12-20T09:36:58.694Z,7.22
2022-12-20T09:39:44.177Z,7.31
2022-12-20T09:42:30.826Z,7.40
2022-12-20T09:45:28.810Z,7.60
2022-12-20T09:48:24.193Z,7.73
2022-12-20T09:51:29.695Z,7.72
2022-12-20T09:54:33.023Z,7.74
2022-12-20T09:57:29.986Z,7.76
2022-12-20T10:00:18.013Z,7.80
2022-12-20T10:03:10.153Z,7.84
2022-12-20T10:06:00.350Z,7.89
2022-12-20T10:09:10.679Z,7.88
2022-12-20T10:12:33.510Z,7.86
2022-12-20T10:15:28.764Z,7.87
2022-12-20T10:19:06.863Z,7.95
2022-12-20T10:22:12.458Z,8.00
2022-12-20T10:25:24.767Z,8.02
2022-12-20T10:28:16.822Z,8.02
2022-12-20T10:31:08.261Z,8.01
2022-12-20T10:33:53.775Z,8.04
2022-12-20T10:36:39.752Z,8.04
2022-12-20T10:39:42.243Z,8.06
2022-12-20T10:42:45.814Z,8.15
2022-12-20T10:45:40.873Z,8.32
2022-12-20T10:48:29.264Z,8.48
2022-12-20T10:51:16.935Z,8.56
2022-12-20T10:54:04.117Z,8.65
2022-12-20T10:56:58.703Z,8.67
2022-12-20T10:59:54.567Z,8.66
2022-12-20T11:02:42.697Z,8.64
2022-12-20T11:05:29.220Z,8.71
2022-12-20T11:08:37.569Z,8.74
2022-12-20T11:11:24.685Z,8.68
2022-12-20T11:14:16.280Z,8.62
2022-12-20T11:17:07.759Z,8.55
2022-12-20T11:20:16.198Z,8.53
2022-12-20T11:23:18.181Z,8.56
2022-12-20T11:26:29.608Z,8.56
2022-12-20T11:29:33.127Z,8.53
2022-12-20T11:32:40.573Z,8.49
2022-12-20T11:35:37.254Z,8.46
2022-12-20T11:38:28.070Z,8.45
2022-12-20T11:41:48.916Z,8.45
2022-12-20T11:44:45.721Z,8.49
2022-12-20T11:47:47.637Z,8.49
2022-12-20T11:51:16.114Z,8.46
2022-12-20T11:54:17.046Z,8.46
2022-12-20T11:57:13.498Z,8.46
2022-12-20T12:00:02.588Z,8.48
2022-12-20T12:03:05.859Z,8.54
2022-12-20T12:05:56.447Z,8.62
2022-12-20T12:08:58.502Z,8.67
2022-12-20T12:12:08.189Z,8.71
2022-12-20T12:15:18.473Z,8.69
2022-12-20T12:18:07.896Z,8.73
2022-12-20T12:21:03.523Z,8.79
2022-12-20T12:24:05.751Z,8.82
2022-12-20T12:26:51.911Z,8.78
2022-12-20T12:29:37.344Z,8.73
2022-12-20T12:32:47.472Z,8.69
2022-12-20T12:35:47.295Z,8.71
2022-12-20T12:39:13.383Z,8.69
2022-12-20T12:42:14.001Z,8.69
2022-12-20T12:45:03.130Z,8.68
2022-12-20T12:48:12.200Z,8.70
2022-12-20T12:51:00.768Z,8.70
2022-12-20T12:53:51.347Z,8.68
2022-12-20T12:56:45.504Z,8.67
2022-12-20T12:59:34.442Z,8.65
2022-12-20T13:02:26.713Z,8.69
2022-12-20T13:05:14.585Z,8.69
2022-12-20T13:08:01.132Z,8.68
2022-12-20T13:10:46.274Z,8.62
2022-12-20T13:13:31.841Z,8.61
2022-12-20T13:17:02.137Z,8.56
2022-12-20T13:19:39.032Z,8.52
2022-12-20T13:22:25.936Z,8.43
2022-12-20T13:25:29.901Z,8.39
2022-12-20T13:28:24.048Z,8.35
2022-12-20T13:31:12.704Z,8.32
2022-12-20T13:34:00.960Z,8.28
2022-12-20T13:36:46.360Z,8.28
2022-12-20T13:39:37.025Z,8.29
2022-12-20T13:42:34.105Z,8.26
2022-12-20T13:45:19.773Z,8.24
2022-12-20T13:48:11.478Z,8.23
2022-12-20T13:50:58.094Z,8.23
2022-12-20T13:53:56.569Z,8.23
2022-12-20T13:56:45.561Z,8.17
2022-12-20T13:59:33.272Z,8.12
2022-12-20T14:02:29.717Z,8.11
2022-12-20T14:05:21.502Z,8.07
2022-12-20T14:08:15.766Z,8.02
2022-12-20T14:11:19.264Z,8.00
2022-12-20T14:14:04.837Z,7.98
2022-12-20T14:16:50.386Z,7.98
2022-12-20T14:19:36.742Z,7.99
2022-12-20T14:22:22.080Z,7.98
2022-12-20T14:25:09.054Z,7.94
2022-12-20T14:27:55.792Z,7.91
2022-12-20T14:30:43.875Z,7.90
2022-12-20T14:33:30.769Z,7.89
2022-12-20T14:36:18.307Z,7.87
2022-12-20T14:39:25.151Z,7.84
2022-12-20T14:42:10.464Z,7.85
2022-12-20T14:45:04.214Z,7.82
2022-12-20T14:48:03.330Z,7.78
2022-12-20T14:50:53.657Z,7.75
2022-12-20T14:53:40.366Z,7.74
2022-12-20T14:56:32.247Z,7.73
2022-12-20T14:59:27.113Z,7.69
2022-12-20T15:02:54.416Z,7.68
2022-12-20T15:05:47.023Z,7.64
2022-12-20T15:08:33.478Z,7.63
2022-12-20T15:11:22.694Z,7.61
2022-12-20T15:14:24.836Z,7.60
2022-12-20T15:17:14.488Z,7.59
2022-12-20T15:19:59.711Z,7.55
2022-12-20T15:22:45.394Z,7.50
2022-12-20T15:25:41.204Z,7.48
2022-12-20T15:28:28.742Z,7.50
2022-12-20T15:31:17.126Z,7.48
2022-12-20T15:34:29.132Z,7.43
2022-12-20T15:37:18.707Z,7.40
2022-12-20T15:40:04.120Z,7.35
2022-12-20T15:42:49.259Z,7.31
2022-12-20T15:45:34.613Z,7.34
2022-12-20T15:48:23.277Z,7.35
2022-12-20T15:51:28.541Z,7.35
2022-12-20T15:54:32.716Z,7.40
2022-12-20T15:57:18.511Z,7.35
2022-12-20T16:00:06.216Z,7.35
2022-12-20T16:02:59.364Z,7.31
2022-12-20T16:05:44.881Z,7.31
2022-12-20T16:08:30.784Z,7.27
2022-12-20T16:11:28.111Z,7.25
2022-12-20T16:14:18.739Z,7.24
2022-12-20T16:17:04.503Z,7.24
2022-12-20T16:19:49.791Z,7.24
2022-12-20T16:22:35.268Z,7.26
2022-12-20T16:25:25.886Z,7.28
2022-12-20T16:28:11.234Z,7.28
2022-12-20T16:30:56.536Z,7.25
2022-12-20T16:33:41.905Z,7.23
2022-12-20T16:36:27.473Z,7.21
2022-12-20T16:39:12.661Z,7.20
2022-12-20T16:41:57.895Z,7.22
2022-12-20T16:44:44.944Z,7.21
2022-12-20T16:47:30.830Z,7.24
2022-12-20T16:50:17.076Z,7.29
2022-12-20T16:53:02.813Z,7.26
2022-12-20T16:55:47.863Z,7.23
2022-12-20T16:58:59.934Z,7.19
2022-12-20T17:01:40.334Z,7.22
2022-12-20T17:04:28.801Z,7.19
2022-12-20T17:07:14.152Z,7.19
2022-12-20T17:10:12.336Z,7.21
2022-12-20T17:12:58.019Z,7.24
2022-12-20T17:15:47.564Z,7.23
2022-12-20T17:18:32.904Z,7.21
2022-12-20T17:21:21.300Z,7.20
2022-12-20T17:24:14.501Z,7.24
2022-12-20T17:27:00.321Z,7.19
2022-12-20T17:29:45.767Z,7.23
2022-12-20T17:32:34.241Z,7.18
2022-12-20T17:35:26.541Z,7.18
2022-12-20T17:38:12.003Z,7.21
2022-12-20T17:40:57.320Z,7.20
2022-12-20T17:43:42.477Z,7.23
2022-12-20T17:46:28.450Z,7.18
2022-12-20T17:49:14.287Z,7.20
2022-12-20T17:51:59.713Z,7.24
2022-12-20T17:54:44.960Z,7.26
2022-12-20T17:57:30.349Z,7.27
2022-12-20T18:00:19.982Z,7.26
2022-12-20T18:03:05.616Z,7.25
2022-12-20T18:05:52.139Z,7.26
2022-12-20T18:08:37.730Z,7.30
2022-12-20T18:11:26.834Z,7.33
2022-12-20T18:14:12.820Z,7.33
2022-12-20T18:16:58.717Z,7.35
2022-12-20T18:19:43.985Z,7.37
2022-12-20T18:22:29.291Z,7.39
2022-12-20T18:25:18.190Z,7.35
2022-12-20T18:28:03.771Z,7.35
2022-12-20T18:30:48.935Z,7.34
2022-12-20T18:33:35.138Z,7.33
2022-12-20T18:36:22.972Z,7.33
2022-12-20T18:39:08.666Z,7.34
2022-12-20T18:41:53.903Z,7.33
2022-12-20T18:44:39.246Z,7.34
2022-12-20T18:47:24.883Z,7.34
2022-12-20T18:50:13.100Z,7.36
2022-12-20T18:53:01.507Z,7.37
2022-12-20T18:55:48.277Z,7.39
2022-12-20T18:58:34.033Z,7.39
2022-12-20T19:01:28.257Z,7.42
2022-12-20T19:04:15.104Z,7.40
2022-12-20T19:07:01.724Z,7.41
2022-12-20T19:09:47.098Z,7.42
2022-12-20T19:12:34.071Z,7.41
2022-12-20T19:15:19.204Z,7.41
2022-12-20T19:18:05.189Z,7.41
2022-12-20T19:20:50.393Z,7.42
2022-12-20T19:23:37.139Z,7.42
2022-12-20T19:26:25.711Z,7.44
2022-12-20T19:29:14.571Z,7.43
2022-12-20T19:31:59.913Z,7.40
2022-12-20T19:34:45.199Z,7.38
2022-12-20T19:37:36.976Z,7.37
2022-12-20T19:40:22.536Z,7.40
2022-12-20T19:43:07.819Z,7.47
2022-12-20T19:45:52.934Z,7.42
2022-12-20T19:48:38.682Z,7.35
2022-12-20T19:51:26.056Z,7.28
2022-12-20T19:54:12.216Z,7.27
2022-12-20T19:56:59.756Z,7.21
2022-12-20T19:59:55.403Z,7.21
2022-12-20T20:02:47.659Z,7.22
2022-12-20T20:05:39.436Z,7.40
2022-12-20T20:08:25.225Z,7.32
2022-12-20T20:11:11.247Z,7.36
2022-12-20T20:13:56.922Z,7.40
2022-12-20T20:16:42.180Z,7.60
2022-12-20T20:19:27.396Z,7.71
2022-12-20T20:22:17.770Z,7.65
2022-12-20T20:25:08.132Z,7.81
2022-12-20T20:27:53.749Z,7.67
2022-12-20T20:30:43.866Z,7.52
2022-12-20T20:33:30.882Z,7.40
2022-12-20T20:36:21.592Z,7.33
2022-12-20T20:39:07.095Z,7.27
2022-12-20T20:41:52.257Z,7.23
2022-12-20T20:44:37.734Z,7.18
2022-12-20T20:47:23.540Z,7.18
2022-12-20T20:50:09.085Z,7.17
2022-12-20T20:52:54.625Z,7.15
2022-12-20T20:55:40.340Z,7.11
2022-12-20T20:58:26.128Z,7.08
2022-12-20T21:01:11.572Z,7.07
2022-12-20T21:03:57.275Z,7.04
2022-12-20T21:06:42.920Z,7.04
2022-12-20T21:09:28.745Z,7.07
2022-12-20T21:12:15.834Z,7.07
2022-12-20T21:15:22.024Z,7.06
2022-12-20T21:18:06.848Z,7.07
2022-12-20T21:20:52.170Z,7.08
2022-12-20T21:23:38.742Z,7.09
2022-12-20T21:26:27.950Z,7.09
2022-12-20T21:29:13.477Z,7.08
2022-12-20T21:31:58.743Z,7.06
2022-12-20T21:34:46.867Z,7.06
2022-12-20T21:37:32.473Z,7.05
2022-12-20T21:40:18.071Z,7.04
2022-12-20T21:43:03.444Z,7.02
2022-12-20T21:45:50.370Z,7.00
2022-12-20T21:48:35.832Z,7.03
2022-12-20T21:51:23.762Z,7.03
2022-12-20T21:54:09.298Z,7.00
2022-12-20T21:56:54.504Z,6.99
2022-12-20T21:59:39.855Z,7.00
2022-12-20T22:02:25.342Z,6.97
2022-12-20T22:05:10.636Z,6.95
2022-12-20T22:07:56.049Z,6.92
2022-12-20T22:10:42.479Z,6.91
2022-12-20T22:13:29.193Z,6.93
2022-12-20T22:16:16.139Z,6.97
2022-12-20T22:19:02.444Z,6.98
2022-12-20T22:21:53.707Z,6.96
2022-12-20T22:24:43.088Z,7.00
2022-12-20T22:27:28.425Z,7.03
2022-12-20T22:30:14.261Z,7.04
2022-12-20T22:32:59.731Z,7.04
2022-12-20T22:35:45.043Z,7.04
2022-12-20T22:38:30.453Z,7.04
2022-12-20T22:41:30.457Z,7.04
2022-12-20T22:44:15.755Z,7.02
2022-12-20T22:47:00.915Z,7.03
2022-12-20T22:49:46.375Z,7.01
2022-12-20T22:52:33.108Z,6.99
2022-12-20T22:55:18.581Z,7.00
2022-12-20T22:58:03.624Z,7.00
2022-12-20T23:00:49.207Z,7.00
2022-12-20T23:03:35.842Z,7.00
2022-12-20T23:06:21.904Z,7.00
2022-12-20T23:09:07.066Z,7.01
2022-12-20T23:12:11.590Z,7.01
2022-12-20T23:15:26.109Z,7.00
2022-12-20T23:18:11.563Z,7.00
2022-12-20T23:21:15.306Z,6.99
2022-12-20T23:24:00.263Z,6.99
2022-12-20T23:26:45.886Z,6.93
2022-12-20T23:29:31.082Z,6.88
2022-12-20T23:32:16.495Z,6.88
2022-12-20T23:35:08.346Z,6.86
2022-12-20T23:37:58.028Z,6.83
2022-12-20T23:40:43.200Z,6.80
2022-12-20T23:43:30.188Z,6.80
2022-12-20T23:46:18.322Z,6.79
2022-12-20T23:49:03.772Z,6.81
2022-12-20T23:51:49.011Z,6.78
2022-12-20T23:54:34.125Z,6.74
2022-12-20T23:57:19.671Z,6.73
